Time;durP1;ratioP1;P1;durP2;ratioP2;P2;SDS_P1;SDS_P2;PMS_P1;PMS_P2;Temp;Humidity;BMP_temperature;BMP_pressure;BME280_temperature;BME280_humidity;BME280_pressure;Samples;Min_cycle;Max_cycle;Signal;HPM_P1;HPM_P2
2022/12/08 00:01:13;;;;;;;22.98;12.00;;;;;;;3.57;100.00;100977.06;5052409;28;23260;-72
2022/12/08 00:03:39;;;;;;;24.05;12.45;;;;;;;3.57;100.00;100977.06;5054007;28;20037;-72
2022/12/08 00:11:41;;;;;;;30.08;13.23;;;;;;;3.57;100.00;100963.78;5055523;28;20047;-72
2022/12/08 00:14:07;;;;;;;24.77;14.43;;;;;;;3.56;100.00;100960.25;5036931;28;20021;-72
2022/12/08 00:16:32;;;;;;;30.83;14.60;;;;;;;3.57;100.00;100950.50;5036480;28;20091;-72
2022/12/08 00:18:57;;;;;;;27.88;14.32;;;;;;;3.54;100.00;100950.63;5033333;28;20108;-72
2022/12/08 00:21:22;;;;;;;28.58;15.30;;;;;;;3.55;100.00;100952.34;5037588;28;20028;-72
2022/12/08 00:23:48;;;;;;;27.70;16.48;;;;;;;3.54;100.00;100948.81;5053940;28;20506;-72
2022/12/08 00:26:13;;;;;;;26.05;14.70;;;;;;;3.53;100.00;100938.25;5053142;28;20091;-72
2022/12/08 00:28:38;;;;;;;28.33;16.02;;;;;;;3.55;100.00;100936.41;5052902;28;20049;-72
2022/12/08 00:31:08;;;;;;;33.15;17.17;;;;;;;3.56;100.00;100932.81;5036233;28;20116;-72
2022/12/08 00:33:33;;;;;;;27.50;16.92;;;;;;;3.55;100.00;100937.25;5055365;28;20017;-72
2022/12/08 00:36:08;;;;;;;29.33;17.77;;;;;;;3.56;100.00;100938.13;5052989;28;20051;-72
2022/12/08 00:38:34;;;;;;;31.05;17.25;;;;;;;3.56;100.00;100935.47;5036447;28;20484;-72
2022/12/08 00:40:59;;;;;;;30.98;17.92;;;;;;;3.56;100.00;100930.16;5036953;28;20035;-72
2022/12/08 00:43:25;;;;;;;27.55;16.40;;;;;;;3.57;100.00;100921.25;5055408;28;20024;-72
2022/12/08 00:45:50;;;;;;;29.83;17.27;;;;;;;3.57;100.00;100923.91;5053393;28;20024;-72
2022/12/08 00:48:16;;;;;;;31.45;18.13;;;;;;;3.57;100.00;100921.25;5037968;28;20429;-72
2022/12/08 00:50:41;;;;;;;33.50;19.48;;;;;;;3.55;100.00;100925.78;5034941;28;20067;-72
2022/12/08 00:53:06;;;;;;;31.17;18.52;;;;;;;3.55;100.00;100923.13;5054870;28;20094;-72
2022/12/08 00:55:31;;;;;;;31.40;18.13;;;;;;;3.58;100.00;100920.34;5055748;28;20540;-72
2022/12/08 00:57:57;;;;;;;30.80;17.58;;;;;;;3.57;100.00;100915.94;5054598;28;20076;-72
2022/12/08 01:00:22;;;;;;;32.05;17.42;;;;;;;3.55;100.00;100915.16;5054674;28;20068;-72
2022/12/08 01:02:47;;;;;;;32.65;18.52;;;;;;;3.55;100.00;100908.03;5054989;28;20025;-72
2022/12/08 01:05:13;;;;;;;29.67;16.85;;;;;;;3.54;100.00;100905.44;5025959;28;20044;-72
2022/12/08 01:07:38;;;;;;;30.25;17.92;;;;;;;3.54;100.00;100911.59;5040245;28;20059;-72
2022/12/08 01:10:04;;;;;;;28.92;15.88;;;;;;;3.55;100.00;100909.84;5048691;28;20094;-72
2022/12/08 01:12:29;;;;;;;27.77;15.95;;;;;;;3.55;100.00;100905.38;5032727;28;20033;-72
2022/12/08 01:14:54;;;;;;;29.70;14.68;;;;;;;3.56;100.00;100904.47;5049407;28;20029;-72
2022/12/08 01:17:20;;;;;;;28.15;15.52;;;;;;;3.58;100.00;100899.06;5036987;28;20036;-72
2022/12/08 01:19:45;;;;;;;25.98;14.13;;;;;;;3.58;100.00;100904.38;5028391;28;20038;-72
2022/12/08 01:22:10;;;;;;;27.00;15.40;;;;;;;3.57;100.00;100897.34;5054193;28;20506;-72
2022/12/08 01:24:36;;;;;;;24.63;13.15;;;;;;;3.59;100.00;100899.00;5051240;28;20040;-72
2022/12/08 01:27:01;;;;;;;25.63;13.25;;;;;;;3.59;100.00;100887.53;5052699;28;20476;-72
2022/12/08 01:29:26;;;;;;;26.63;13.45;;;;;;;3.58;100.00;100897.25;5035072;28;20049;-72
2022/12/08 01:31:52;;;;;;;27.77;12.45;;;;;;;3.57;100.00;100897.34;5053501;28;20084;-72
2022/12/08 01:34:17;;;;;;;25.45;12.57;;;;;;;3.59;100.00;100898.16;5053723;28;20036;-72
2022/12/08 01:36:43;;;;;;;24.35;11.07;;;;;;;3.58;100.00;100902.59;5053848;28;20083;-72
2022/12/08 01:39:14;;;;;;;22.15;10.70;;;;;;;3.59;100.00;100895.50;5052259;28;20025;-72
2022/12/08 01:41:40;;;;;;;23.58;11.70;;;;;;;3.60;100.00;100899.84;5051447;28;20032;-72
2022/12/08 01:44:07;;;;;;;23.13;10.55;;;;;;;3.61;100.00;100896.28;5052063;28;20032;-72
2022/12/08 01:46:34;;;;;;;22.55;10.85;;;;;;;3.62;100.00;100893.56;5052003;28;20059;-72
2022/12/08 01:49:05;;;;;;;23.50;10.50;;;;;;;3.66;100.00;100899.59;5054741;28;20120;-72
2022/12/08 01:51:53;;;;;;;21.60;10.05;;;;;;;3.65;100.00;100890.75;5052007;28;20028;-72
2022/12/08 01:54:21;;;;;;;22.70;10.02;;;;;;;3.67;100.00;100886.25;5056760;28;20024;-72
2022/12/08 01:57:08;;;;;;;28.48;10.75;;;;;;;3.68;100.00;100884.44;5056385;28;20033;-72
2022/12/08 01:59:38;;;;;;;22.67;10.60;;;;;;;3.68;100.00;100884.44;5048981;28;20033;-72
2022/12/08 02:02:06;;;;;;;26.48;11.27;;;;;;;3.66;100.00;100878.31;5038051;28;20083;-72
2022/12/08 02:04:31;;;;;;;23.98;10.60;;;;;;;3.66;100.00;100884.53;5053720;28;20037;-72
2022/12/08 02:06:57;;;;;;;23.02;10.38;;;;;;;3.67;100.00;100885.38;5033664;28;20032;-72
2022/12/08 02:09:23;;;;;;;23.67;10.35;;;;;;;3.67;100.00;100877.41;5035905;28;20049;-72
2022/12/08 02:11:49;;;;;;;24.08;12.15;;;;;;;3.66;100.00;100873.88;5054446;28;20076;-72
2022/12/08 02:14:14;;;;;;;22.40;10.90;;;;;;;3.66;100.00;100868.56;5052874;28;20037;-72
2022/12/08 02:16:47;;;;;;;24.45;10.88;;;;;;;3.65;100.00;100874.81;5051945;28;20107;-72
2022/12/08 02:19:15;;;;;;;23.25;10.68;;;;;;;3.66;100.00;100862.38;5053207;28;20543;-72
2022/12/08 02:21:51;;;;;;;21.60;9.45;;;;;;;3.66;100.00;100868.56;5053390;28;20063;-72
2022/12/08 02:24:28;;;;;;;22.55;9.98;;;;;;;3.66;100.00;100854.41;5052414;28;20116;-72
2022/12/08 02:27:09;;;;;;;21.33;9.75;;;;;;;3.66;100.00;100851.75;5034932;28;20060;-72
2022/12/08 02:29:56;;;;;;;22.30;9.93;;;;;;;3.67;100.00;100850.81;5033909;28;20404;-72
2022/12/08 02:32:39;;;;;;;22.25;8.43;;;;;;;3.66;100.00;100855.28;5049452;28;20040;-72
2022/12/08 02:35:13;;;;;;;19.10;8.10;;;;;;;3.64;100.00;100853.63;5034311;28;20056;-72
2022/12/08 02:37:48;;;;;;;22.15;9.00;;;;;;;3.64;100.00;100835.88;5053827;28;20120;-72
2022/12/08 02:40:32;;;;;;;20.90;8.55;;;;;;;3.65;100.00;100842.06;5052950;28;20028;-72
2022/12/08 02:43:01;;;;;;;21.05;8.75;;;;;;;3.65;100.00;100836.75;5052540;28;20059;-72
2022/12/08 02:45:43;;;;;;;19.80;7.47;;;;;;;3.68;100.00;100841.94;5051152;28;20041;-72
2022/12/08 02:48:09;;;;;;;17.92;7.22;;;;;;;3.66;100.00;100831.38;5031930;28;20032;-72
2022/12/08 02:50:35;;;;;;;20.52;7.13;;;;;;;3.67;100.00;100832.22;5040414;28;20037;-72
2022/12/08 02:53:01;;;;;;;18.20;6.70;;;;;;;3.68;100.00;100824.16;5051880;28;20365;-72
2022/12/08 02:55:36;;;;;;;21.05;7.45;;;;;;;3.68;100.00;100820.66;5051832;28;20044;-72
2022/12/08 02:58:28;;;;;;;17.38;6.05;;;;;;;3.70;100.00;100813.47;5043405;28;20040;-72
2022/12/08 03:00:56;;;;;;;19.73;7.00;;;;;;;3.66;100.00;100809.22;5051059;28;20077;-72
2022/12/08 03:03:34;;;;;;;19.20;6.95;;;;;;;3.67;100.00;100805.63;5052226;28;20036;-72
2022/12/08 03:06:39;;;;;;;19.05;7.57;;;;;;;3.69;100.00;100801.13;5033582;28;20387;-72
2022/12/08 03:09:16;;;;;;;21.33;7.57;;;;;;;3.67;100.00;100806.53;5047199;28;20087;-72
2022/12/08 03:12:04;;;;;;;20.70;7.93;;;;;;;3.65;100.00;100808.38;5049349;28;20064;-72
2022/12/08 03:14:32;;;;;;;21.48;8.13;;;;;;;3.65;100.00;100800.41;5050081;28;20036;-72
2022/12/08 03:16:58;;;;;;;19.13;7.28;;;;;;;3.67;100.00;100813.59;5051712;28;20797;-72
2022/12/08 03:19:33;;;;;;;20.67;8.27;;;;;;;3.68;100.00;100796.75;5047357;28;20485;-72
2022/12/08 03:22:03;;;;;;;21.50;9.68;;;;;;;3.68;100.00;100804.72;5049930;28;20451;-72
2022/12/08 03:24:33;;;;;;;20.92;8.35;;;;;;;3.68;100.00;100786.97;5052292;28;20118;-72
2022/12/08 03:27:05;;;;;;;24.80;10.40;;;;;;;3.69;100.00;100793.16;5034221;28;20032;-72
2022/12/08 03:29:31;;;;;;;24.17;9.90;;;;;;;3.68;100.00;100789.63;5050311;28;20524;-72
2022/12/08 03:32:06;;;;;;;21.88;10.13;;;;;;;3.70;100.00;100786.03;5051966;28;20063;-72
2022/12/08 03:34:33;;;;;;;23.42;10.85;;;;;;;3.70;100.00;100788.69;5051848;28;20031;-72
2022/12/08 03:37:01;;;;;;;24.35;11.88;;;;;;;3.72;100.00;100778.84;5050816;28;20068;-72
2022/12/08 03:39:26;;;;;;;27.25;13.05;;;;;;;3.72;100.00;100776.19;5049924;28;20024;-72
2022/12/08 03:41:51;;;;;;;27.45;14.70;;;;;;;3.73;100.00;100778.78;5034825;28;20545;-72
2022/12/08 03:44:16;;;;;;;27.50;15.93;;;;;;;3.74;100.00;100772.53;5051488;28;20056;-72
2022/12/08 03:46:42;;;;;;;30.85;16.33;;;;;;;3.74;100.00;100775.19;5051123;28;20029;-72
2022/12/08 03:49:07;;;;;;;29.67;16.55;;;;;;;3.75;100.00;100766.28;5051842;28;20860;-72
2022/12/08 03:51:32;;;;;;;29.85;17.60;;;;;;;3.75;100.00;100763.63;5050200;28;20025;-72
2022/12/08 03:53:57;;;;;;;32.90;19.50;;;;;;;3.74;100.00;100769.88;5052476;28;20037;-72
2022/12/08 03:56:24;;;;;;;35.40;21.98;;;;;;;3.75;100.00;100766.28;5048315;28;20028;-72
2022/12/08 03:58:50;;;;;;;35.78;21.40;;;;;;;3.77;100.00;100761.75;5051931;28;20087;-72
2022/12/08 04:01:16;;;;;;;43.65;22.50;;;;;;;3.79;100.00;100759.91;5050627;28;20036;-72
2022/12/08 04:03:41;;;;;;;35.35;21.35;;;;;;;3.78;100.00;100763.50;5051021;28;20476;-72
2022/12/08 04:06:07;;;;;;;38.55;22.70;;;;;;;3.78;100.00;100752.00;5050554;28;20037;-72
2022/12/08 04:08:32;;;;;;;35.22;23.27;;;;;;;3.79;100.00;100749.28;5052293;28;20082;-72
2022/12/08 04:10:57;;;;;;;36.67;21.27;;;;;;;3.78;100.00;100746.69;5049268;28;20025;-72
2022/12/08 04:13:23;;;;;;;36.83;22.30;;;;;;;3.80;100.00;100750.97;5034071;28;20033;-72
2022/12/08 04:15:48;;;;;;;37.35;23.02;;;;;;;3.78;100.00;100750.19;5050428;28;20064;-72
2022/12/08 04:18:14;;;;;;;33.00;20.75;;;;;;;3.78;100.00;100752.00;5050881;28;20028;-72
2022/12/08 04:20:41;;;;;;;35.33;20.45;;;;;;;3.76;100.00;100752.03;5029846;28;20033;-72
2022/12/08 04:23:07;;;;;;;35.15;20.20;;;;;;;3.76;100.00;100757.34;5052347;28;20033;-72
2022/12/08 04:25:33;;;;;;;36.45;20.23;;;;;;;3.74;100.00;100748.59;5042999;28;20025;-72
2022/12/08 04:27:58;;;;;;;31.17;18.15;;;;;;;3.74;100.00;100748.59;5047047;28;20107;-72
2022/12/08 04:30:23;;;;;;;31.63;17.80;;;;;;;3.74;100.00;100735.31;5051500;28;20473;-72
2022/12/08 04:32:49;;;;;;;28.20;14.55;;;;;;;3.75;100.00;100734.41;5034415;28;20040;-72
2022/12/08 04:35:14;;;;;;;29.13;13.68;;;;;;;3.75;100.00;100737.06;5033529;28;20485;-72
2022/12/08 04:37:40;;;;;;;27.92;13.90;;;;;;;3.77;100.00;100731.66;5028337;28;20029;-72
2022/12/08 04:40:05;;;;;;;27.20;13.40;;;;;;;3.78;100.00;100736.91;5050933;28;20102;-72
2022/12/08 04:42:31;;;;;;;25.10;13.38;;;;;;;3.78;100.00;100728.06;5049229;28;20556;-72
2022/12/08 04:44:56;;;;;;;27.83;13.27;;;;;;;3.77;100.00;100718.38;5050191;28;20099;-72
2022/12/08 04:47:21;;;;;;;24.45;11.70;;;;;;;3.76;100.00;100711.31;5033007;28;20029;-72
2022/12/08 04:49:47;;;;;;;23.60;10.27;;;;;;;3.76;100.00;100709.50;5051041;28;20079;-72
2022/12/08 04:52:12;;;;;;;28.05;11.30;;;;;;;3.76;100.00;100717.50;5051981;28;20104;-72
2022/12/08 04:54:37;;;;;;;23.00;10.25;;;;;;;3.76;100.00;100730.78;5051314;28;20033;-72
2022/12/08 04:57:03;;;;;;;22.08;9.93;;;;;;;3.76;100.00;100717.50;5050470;28;20039;-72
2022/12/08 04:59:28;;;;;;;20.63;7.78;;;;;;;3.75;100.00;100714.91;5032556;28;20515;-72
2022/12/08 05:01:53;;;;;;;16.60;5.32;;;;;;;3.72;100.00;100705.31;5049942;28;20033;-72
2022/12/08 05:04:19;;;;;;;17.40;5.80;;;;;;;3.73;100.00;100712.31;5051701;28;20109;-72
2022/12/08 05:06:44;;;;;;;14.40;4.80;;;;;;;3.72;100.00;100712.41;5050235;28;20035;-72
2022/12/08 05:09:09;;;;;;;15.68;5.45;;;;;;;3.70;100.00;100722.25;5051207;28;20040;-72
2022/12/08 05:11:35;;;;;;;13.90;4.53;;;;;;;3.68;100.00;100730.28;5033910;28;20043;-72
2022/12/08 05:14:00;;;;;;;12.30;3.83;;;;;;;3.67;100.00;100721.47;5049631;28;20397;-72
2022/12/08 05:16:25;;;;;;;14.02;4.10;;;;;;;3.65;100.00;100719.81;5050290;28;20039;-72
2022/12/08 05:18:51;;;;;;;13.18;4.88;;;;;;;3.66;100.00;100718.84;5050913;28;20403;-72
2022/12/08 05:21:16;;;;;;;16.40;4.53;;;;;;;3.67;100.00;100723.25;5051276;28;20044;-72
2022/12/08 05:23:41;;;;;;;15.32;4.45;;;;;;;3.66;100.00;100727.72;5054090;28;20032;-72
2022/12/08 05:26:07;;;;;;;13.77;4.53;;;;;;;3.64;100.00;100712.75;5055441;28;20266;-72
2022/12/08 05:28:32;;;;;;;14.30;4.50;;;;;;;3.64;100.00;100710.09;5054538;28;20048;-72
2022/12/08 05:30:57;;;;;;;16.55;5.57;;;;;;;3.64;100.00;100715.41;5053199;28;20047;-72
2022/12/08 05:33:23;;;;;;;14.85;4.68;;;;;;;3.63;100.00;100714.56;5036514;28;20037;-72
2022/12/08 05:35:48;;;;;;;16.13;5.03;;;;;;;3.64;100.00;100712.75;5053740;28;20028;-72
2022/12/08 05:38:14;;;;;;;16.70;4.95;;;;;;;3.61;100.00;100715.56;5037362;28;20102;-72
2022/12/08 05:40:40;;;;;;;16.77;4.45;;;;;;;3.60;100.00;100713.84;5047079;28;20033;-72
2022/12/08 05:43:06;;;;;;;13.20;4.03;;;;;;;3.60;100.00;100719.16;5036455;28;20064;-72
2022/12/08 05:45:33;;;;;;;9.30;3.10;;;;;;;3.59;100.00;100720.09;5041048;28;20061;-72
2022/12/08 05:47:59;;;;;;;6.80;2.45;;;;;;;3.54;100.00;100720.28;5038435;28;20025;-72
2022/12/08 05:50:24;;;;;;;6.70;2.40;;;;;;;3.49;100.00;100715.19;5053244;28;20549;-72
2022/12/08 05:52:49;;;;;;;9.15;2.67;;;;;;;3.46;100.00;100712.69;5055336;28;20158;-72
2022/12/08 05:55:15;;;;;;;11.32;3.35;;;;;;;3.47;100.00;100710.88;5055453;28;20040;-72
2022/12/08 05:57:40;;;;;;;9.30;2.95;;;;;;;3.46;100.00;100707.38;5036560;28;20036;-72
2022/12/08 06:00:06;;;;;;;7.40;2.55;;;;;;;3.46;100.00;100707.38;5051503;28;20484;-72
2022/12/08 06:02:31;;;;;;;11.32;2.78;;;;;;;3.46;100.00;100707.38;5055051;28;20021;-72
2022/12/08 06:04:57;;;;;;;10.90;3.05;;;;;;;3.47;100.00;100709.09;5054697;28;20052;-72
2022/12/08 06:07:22;;;;;;;15.45;3.92;;;;;;;3.47;100.00;100703.78;5040787;28;20100;-72
2022/12/08 06:09:47;;;;;;;8.73;2.85;;;;;;;3.46;100.00;100698.53;5030408;28;20037;-72
2022/12/08 06:12:13;;;;;;;6.75;2.22;;;;;;;3.45;100.00;100694.16;5044470;28;20067;-72
2022/12/08 06:14:38;;;;;;;9.07;3.28;;;;;;;3.42;100.00;100691.63;5053948;28;20492;-72
2022/12/08 06:17:04;;;;;;;16.00;3.67;;;;;;;3.42;100.00;100691.63;5053966;28;20103;-72
2022/12/08 06:19:29;;;;;;;6.68;2.70;;;;;;;3.41;100.00;100687.25;5053425;28;20074;-72
2022/12/08 06:21:54;;;;;;;12.50;3.53;;;;;;;3.42;100.00;100695.16;5052807;28;20037;-72
2022/12/08 06:24:20;;;;;;;9.20;2.83;;;;;;;3.44;100.00;100697.72;5046609;28;20033;-72
2022/12/08 06:26:45;;;;;;;6.57;2.85;;;;;;;3.44;100.00;100692.41;5053830;28;20469;-72
2022/12/08 06:29:11;;;;;;;7.80;2.70;;;;;;;3.44;100.00;100690.66;5052959;28;20049;-72
2022/12/08 06:31:36;;;;;;;9.95;3.30;;;;;;;3.45;100.00;100692.34;5052056;28;20098;-72
2022/12/08 06:34:02;;;;;;;12.05;3.63;;;;;;;3.47;100.00;100695.81;5053669;28;20060;-72
2022/12/08 06:36:27;;;;;;;10.52;3.90;;;;;;;3.48;100.00;100705.53;5033701;28;20021;-72
2022/12/08 06:38:53;;;;;;;22.40;4.15;;;;;;;3.50;100.00;100703.63;5052167;28;20056;-72
2022/12/08 06:41:19;;;;;;;11.32;3.25;;;;;;;3.47;100.00;100694.94;5043525;28;20117;-72
2022/12/08 06:43:44;;;;;;;7.93;2.65;;;;;;;3.46;100.00;100698.53;5034357;28;20091;-72
2022/12/08 06:46:14;;;;;;;10.07;3.30;;;;;;;3.43;100.00;100702.19;5036656;28;20045;-72
2022/12/08 06:48:39;;;;;;;6.93;2.72;;;;;;;3.43;100.00;100696.88;5035615;28;20025;-72
2022/12/08 06:51:07;;;;;;;15.35;3.35;;;;;;;3.44;100.00;100697.72;5052437;28;20103;-72
2022/12/08 06:53:32;;;;;;;9.02;3.20;;;;;;;3.42;100.00;100689.84;5054262;28;20020;-72
2022/12/08 06:55:57;;;;;;;13.38;3.75;;;;;;;3.43;100.00;100690.72;5052843;28;20036;-72
2022/12/08 06:58:22;;;;;;;14.50;3.33;;;;;;;3.43;100.00;100690.72;5051499;28;20097;-72
2022/12/08 07:00:48;;;;;;;8.13;2.97;;;;;;;3.44;100.00;100687.97;5052797;28;20029;-72
2022/12/08 07:03:13;;;;;;;12.88;3.03;;;;;;;3.45;100.00;100686.19;5052274;28;20384;-72
2022/12/08 07:05:39;;;;;;;11.00;3.55;;;;;;;3.46;100.00;100691.41;5052764;28;20021;-71
2022/12/08 07:08:06;;;;;;;11.38;3.35;;;;;;;3.44;100.00;100693.31;5053720;28;20021;-71
2022/12/08 07:10:32;;;;;;;11.80;3.65;;;;;;;3.46;100.00;100691.41;5053569;28;20388;-71
2022/12/08 07:12:57;;;;;;;18.15;6.72;;;;;;;3.45;100.00;100697.66;5051372;28;20013;-71
2022/12/08 07:15:22;;;;;;;14.90;5.32;;;;;;;3.45;100.00;100694.16;5049910;28;20033;-71
2022/12/08 07:17:48;;;;;;;17.60;6.05;;;;;;;3.46;100.00;100696.72;5049741;28;20029;-71
2022/12/08 07:20:14;;;;;;;19.02;7.57;;;;;;;3.47;100.00;100690.50;5031618;28;20404;-72
2022/12/08 07:22:39;;;;;;;20.65;8.95;;;;;;;3.47;100.00;100686.97;5052133;28;20071;-71
2022/12/08 07:25:05;;;;;;;27.42;12.80;;;;;;;3.45;100.00;100694.16;5034367;28;20484;-71
2022/12/08 07:27:30;;;;;;;26.15;12.45;;;;;;;3.46;100.00;100696.72;5050369;28;20017;-72
2022/12/08 07:29:56;;;;;;;28.17;13.55;;;;;;;3.49;100.00;100699.25;5032661;28;20547;-72
2022/12/08 07:32:21;;;;;;;29.00;15.98;;;;;;;3.48;100.00;100694.00;5047512;28;20025;-71
2022/12/08 07:34:47;;;;;;;29.45;16.30;;;;;;;3.47;100.00;100701.13;5050347;28;20024;-71
2022/12/08 07:37:12;;;;;;;30.30;18.20;;;;;;;3.49;100.00;100701.06;5052197;28;20028;-72
2022/12/08 07:39:37;;;;;;;27.67;17.65;;;;;;;3.49;100.00;100696.59;5033866;28;20029;-72
2022/12/08 07:42:03;;;;;;;33.15;18.45;;;;;;;3.50;100.00;100700.97;5032365;28;20024;-72
2022/12/08 07:44:28;;;;;;;30.27;17.80;;;;;;;3.50;100.00;100697.47;5033968;28;20104;-71
2022/12/08 07:46:53;;;;;;;30.13;17.75;;;;;;;3.49;100.00;100696.59;5033874;28;20111;-71
2022/12/08 07:49:19;;;;;;;31.33;18.40;;;;;;;3.46;100.00;100688.75;5046020;28;20025;-72
2022/12/08 07:51:44;;;;;;;31.67;19.40;;;;;;;3.45;100.00;100689.69;5048079;28;20395;-71
2022/12/08 07:54:11;;;;;;;30.85;18.40;;;;;;;3.47;100.00;100698.47;5032680;28;20021;-71
2022/12/08 07:56:36;;;;;;;32.40;20.45;;;;;;;3.46;100.00;100701.19;5051726;28;20384;-71
2022/12/08 07:59:03;;;;;;;34.88;19.73;;;;;;;3.47;100.00;100703.78;5051013;28;20473;-73
2022/12/08 08:01:30;;;;;;;32.10;19.63;;;;;;;3.45;100.00;100702.97;5049797;28;20029;-72
2022/12/08 08:04:00;;;;;;;33.05;18.52;;;;;;;3.40;100.00;100705.00;5047557;28;20083;-72
2022/12/08 08:06:25;;;;;;;35.67;15.88;;;;;;;3.40;100.00;100704.16;5048855;28;20033;-72
2022/12/08 08:08:50;;;;;;;27.13;13.60;;;;;;;3.37;100.00;100698.94;5049566;28;20044;-73
2022/12/08 08:11:16;;;;;;;26.42;14.68;;;;;;;3.32;100.00;100704.47;5049478;28;20028;-74
2022/12/08 08:13:41;;;;;;;32.20;13.50;;;;;;;3.31;100.00;100698.31;5047343;28;20074;-74
2022/12/08 08:16:08;;;;;;;22.60;10.05;;;;;;;3.27;100.00;100703.84;5039536;28;20036;-74
2022/12/08 08:18:35;;;;;;;23.58;10.68;;;;;;;3.27;100.00;100704.69;5042449;28;20021;-74
2022/12/08 08:21:00;;;;;;;25.10;11.43;;;;;;;3.28;100.00;100698.44;5043200;28;20637;-74
2022/12/08 08:23:26;;;;;;;28.35;11.13;;;;;;;3.28;100.00;100698.44;5041409;28;20050;-74
2022/12/08 08:25:52;;;;;;;21.52;9.98;;;;;;;3.28;100.00;100697.56;5047617;28;20583;-74
2022/12/08 08:28:17;;;;;;;21.33;10.55;;;;;;;3.32;100.00;100699.16;5048358;28;20044;-75
2022/12/08 08:30:44;;;;;;;21.95;11.27;;;;;;;3.33;100.00;100703.53;5044222;28;20037;-73
2022/12/08 08:33:10;;;;;;;22.00;9.88;;;;;;;3.34;100.00;100702.63;5046788;28;20031;-73
2022/12/08 08:35:35;;;;;;;21.40;9.27;;;;;;;3.36;100.00;100700.75;5047583;28;20037;-73
2022/12/08 08:38:00;;;;;;;24.05;10.10;;;;;;;3.37;100.00;100697.16;5047999;28;20436;-73
2022/12/08 08:40:26;;;;;;;19.52;7.75;;;;;;;3.39;100.00;100699.75;5048083;28;20432;-73
2022/12/08 08:42:51;;;;;;;20.17;6.82;;;;;;;3.35;100.00;100698.16;5030321;28;20032;-73
2022/12/08 08:45:16;;;;;;;18.48;6.93;;;;;;;3.33;100.00;100695.56;5046978;28;20057;-73
2022/12/08 08:47:42;;;;;;;20.40;8.38;;;;;;;3.36;100.00;100698.09;5025836;28;20032;-73
2022/12/08 08:50:08;;;;;;;23.67;11.48;;;;;;;3.37;100.00;100686.53;5047732;28;20104;-73
2022/12/08 08:52:33;;;;;;;24.30;11.95;;;;;;;3.40;100.00;100696.19;5049507;28;20054;-73
2022/12/08 08:54:58;;;;;;;28.30;15.45;;;;;;;3.44;100.00;100693.31;5049829;28;20043;-73
2022/12/08 08:57:24;;;;;;;27.15;15.68;;;;;;;3.47;100.00;100687.84;5021302;28;20029;-73
2022/12/08 08:59:49;;;;;;;27.42;14.50;;;;;;;3.49;100.00;100693.94;5051621;28;20020;-73
2022/12/08 09:02:16;;;;;;;29.13;15.32;;;;;;;3.53;100.00;100696.44;5051543;28;20525;-73
2022/12/08 09:04:41;;;;;;;27.65;14.98;;;;;;;3.52;100.00;100700.91;5053825;28;20024;-73
2022/12/08 09:07:07;;;;;;;30.35;15.68;;;;;;;3.55;100.00;100694.59;5054280;28;20032;-73
2022/12/08 09:09:32;;;;;;;29.80;16.05;;;;;;;3.54;100.00;100683.09;5053678;28;20493;-73
2022/12/08 09:11:57;;;;;;;25.92;14.20;;;;;;;3.55;100.00;100691.94;5053671;28;20103;-73
2022/12/08 09:14:23;;;;;;;25.17;12.65;;;;;;;3.54;100.00;100692.88;5053731;28;20036;-73
2022/12/08 09:16:48;;;;;;;28.63;15.05;;;;;;;3.53;100.00;100689.34;5052657;28;20028;-73
2022/12/08 09:19:13;;;;;;;27.10;14.95;;;;;;;3.54;100.00;100691.06;5035461;28;20127;-73
2022/12/08 09:21:39;;;;;;;25.23;13.32;;;;;;;3.53;100.00;100691.13;5035161;28;20025;-72
2022/12/08 09:24:05;;;;;;;24.98;12.90;;;;;;;3.55;100.00;100686.63;5053315;28;20025;-72
2022/12/08 09:26:30;;;;;;;23.50;11.55;;;;;;;3.56;100.00;100685.66;5051797;28;20376;-73
2022/12/08 09:28:56;;;;;;;22.90;10.98;;;;;;;3.57;100.00;100693.56;5053422;28;20095;-73
2022/12/08 09:31:23;;;;;;;26.45;11.25;;;;;;;3.60;100.00;100676.63;5052470;28;20032;-73
2022/12/08 09:33:50;;;;;;;22.33;10.10;;;;;;;3.64;100.00;100688.84;5050134;28;20119;-73
2022/12/08 09:36:16;;;;;;;21.75;10.57;;;;;;;3.66;100.00;100687.84;5052400;28;20040;-73
2022/12/08 09:38:42;;;;;;;23.08;10.63;;;;;;;3.69;100.00;100678.88;5053181;28;20025;-73
2022/12/08 09:41:19;;;;;;;22.65;10.10;;;;;;;3.70;100.00;100683.22;5052990;28;20082;-73
2022/12/08 09:43:51;;;;;;;23.67;10.65;;;;;;;3.71;100.00;100686.78;5053011;28;20029;-73
2022/12/08 09:46:18;;;;;;;24.45;11.93;;;;;;;3.73;100.00;100683.06;5033769;28;20025;-73
2022/12/08 09:49:03;;;;;;;27.15;15.32;;;;;;;3.75;100.00;100689.19;5034375;28;20044;-73
2022/12/08 09:51:39;;;;;;;31.27;17.15;;;;;;;3.76;100.00;100684.75;5034599;28;20060;-73
2022/12/08 09:54:23;;;;;;;33.22;20.02;;;;;;;3.79;100.00;100679.28;5052771;28;20111;-73
2022/12/08 09:56:52;;;;;;;32.55;21.40;;;;;;;3.80;100.00;100678.34;5049758;28;20559;-73
2022/12/08 09:59:30;;;;;;;36.28;23.55;;;;;;;3.82;100.00;100680.00;5052306;28;20358;-73
2022/12/08 10:01:55;;;;;;;36.13;22.83;;;;;;;3.81;100.00;100677.41;5052078;28;20037;-73
2022/12/08 10:04:21;;;;;;;39.72;25.08;;;;;;;3.81;100.00;100678.28;5051024;28;20443;-73
2022/12/08 10:07:03;;;;;;;40.47;26.40;;;;;;;3.79;100.00;100674.84;5051987;28;20033;-72
2022/12/08 10:09:53;;;;;;;38.83;24.90;;;;;;;3.77;100.00;100682.00;5050770;28;20032;-73
2022/12/08 10:12:27;;;;;;;36.35;24.98;;;;;;;3.76;100.00;100679.41;5049424;28;20029;-74
2022/12/08 10:15:10;;;;;;;36.03;23.92;;;;;;;3.74;100.00;100681.31;5052084;28;20029;-71
2022/12/08 10:17:47;;;;;;;37.63;22.67;;;;;;;3.75;100.00;100673.25;5032510;28;20036;-71
2022/12/08 10:20:18;;;;;;;37.17;23.05;;;;;;;3.71;100.00;100676.13;5051896;28;20037;-71
2022/12/08 10:22:49;;;;;;;39.15;23.92;;;;;;;3.70;100.00;100671.75;5052438;28;20090;-71
2022/12/08 10:25:21;;;;;;;37.78;23.60;;;;;;;3.69;100.00;100670.91;5052319;28;20336;-72
2022/12/08 10:27:50;;;;;;;36.83;23.92;;;;;;;3.70;100.00;100659.31;5051246;28;20060;-71
2022/12/08 10:30:17;;;;;;;37.25;22.45;;;;;;;3.69;100.00;100660.25;5052095;28;20037;-71
2022/12/08 10:32:45;;;;;;;38.13;21.05;;;;;;;3.68;100.00;100655.88;5049939;28;20032;-71
2022/12/08 10:35:16;;;;;;;37.97;19.95;;;;;;;3.67;100.00;100652.38;5050988;28;20029;-71
2022/12/08 10:37:58;;;;;;;33.58;19.38;;;;;;;3.68;100.00;100647.91;5050344;28;20495;-71
2022/12/08 10:40:27;;;;;;;29.40;17.70;;;;;;;3.67;100.00;100647.06;5051383;28;20025;-71
2022/12/08 10:42:56;;;;;;;34.25;18.35;;;;;;;3.66;100.00;100655.06;5049401;28;20420;-71
2022/12/08 10:45:24;;;;;;;28.75;16.20;;;;;;;3.64;100.00;100659.59;5046343;28;20025;-71
2022/12/08 10:48:00;;;;;;;30.73;16.05;;;;;;;3.63;100.00;100664.06;5034036;28;20170;-71
2022/12/08 10:50:30;;;;;;;27.17;15.50;;;;;;;3.60;100.00;100656.25;5050780;28;20104;-71
2022/12/08 10:53:06;;;;;;;29.80;16.08;;;;;;;3.60;100.00;100658.03;5051708;28;20025;-71
2022/12/08 10:55:42;;;;;;;28.58;14.32;;;;;;;3.61;100.00;100657.09;5051805;28;20040;-73
2022/12/08 10:58:39;;;;;;;28.02;15.55;;;;;;;3.64;100.00;100659.59;5052588;28;20048;-72
2022/12/08 11:01:14;;;;;;;27.23;14.35;;;;;;;3.62;100.00;100664.16;5032286;28;20021;-72
2022/12/08 11:03:42;;;;;;;28.38;14.68;;;;;;;3.60;100.00;100656.25;5050257;28;20032;-72
2022/12/08 11:06:33;;;;;;;28.70;14.98;;;;;;;3.61;100.00;100652.63;5051765;28;20024;-72
2022/12/08 11:09:01;;;;;;;28.95;15.38;;;;;;;3.60;100.00;100650.06;5051889;28;20086;-73
2022/12/08 11:11:58;;;;;;;27.17;15.77;;;;;;;3.62;100.00;100649.06;5051382;28;20024;-73
2022/12/08 11:14:29;;;;;;;26.73;12.82;;;;;;;3.57;100.00;100644.88;5049729;28;20028;-73
2022/12/08 11:17:28;;;;;;;28.20;14.23;;;;;;;3.59;100.00;100637.72;5049106;28;20427;-73
2022/12/08 11:20:17;;;;;;;26.03;12.30;;;;;;;3.51;100.00;100640.72;4981629;28;20043;-72
2022/12/08 11:22:45;;;;;;;24.92;13.57;;;;;;;3.51;100.00;100640.72;5049317;28;20040;-73